Time;durP1;ratioP1;P1;durP2;ratioP2;P2;SDS_P1;SDS_P2;PMS_P1;PMS_P2;Temp;Humidity;BMP_temperature;BMP_pressure;BME280_temperature;BME280_humidity;BME280_pressure;Samples;Min_cycle;Max_cycle;Signal;HPM_P1;HPM_P2
2023/03/07 00:01:25;;;;;;;5.90;2.92;;;;;;;4.40;98.19;99815.50;5034498;28;20029;-85
2023/03/07 00:03:53;;;;;;;4.53;3.50;;;;;;;4.45;98.37;99819.09;5035470;28;20459;-84
2023/03/07 00:06:19;;;;;;;4.97;3.50;;;;;;;4.41;98.40;99830.34;5034396;28;20029;-84
2023/03/07 00:08:48;;;;;;;4.20;3.17;;;;;;;4.53;98.00;99838.41;5035176;28;20037;-84
2023/03/07 00:11:16;;;;;;;4.68;3.05;;;;;;;4.37;97.97;99818.06;5017831;28;20032;-85
2023/03/07 00:13:43;;;;;;;3.30;2.50;;;;;;;4.43;98.23;99837.38;5035376;28;20029;-85
2023/03/07 00:16:12;;;;;;;4.20;2.88;;;;;;;4.30;97.93;99824.91;5034056;28;20048;-85
2023/03/07 00:18:38;;;;;;;3.40;2.67;;;;;;;4.17;98.62;99805.50;5035776;28;20447;-84
2023/03/07 00:21:06;;;;;;;5.50;2.50;;;;;;;4.46;97.41;99854.88;5001105;28;20112;-84
2023/03/07 00:23:33;;;;;;;3.50;2.40;;;;;;;4.44;97.46;99861.78;5033926;28;20021;-84
2023/03/07 00:26:01;;;;;;;2.83;2.17;;;;;;;4.36;96.60;99838.09;5035011;28;20059;-84
2023/03/07 00:28:27;;;;;;;2.28;1.80;;;;;;;4.32;96.53;99844.13;5033714;28;20045;-84
2023/03/07 00:31:03;;;;;;;2.58;2.10;;;;;;;4.04;96.81;99800.88;5034014;28;20041;-84
2023/03/07 00:33:30;;;;;;;2.15;1.90;;;;;;;4.25;96.63;99853.59;5017273;28;20156;-84
2023/03/07 00:35:57;;;;;;;3.10;2.05;;;;;;;3.93;96.67;99798.03;5017259;28;20033;-84
2023/03/07 00:38:33;;;;;;;2.20;1.73;;;;;;;3.79;96.73;99777.69;5033580;28;20367;-84
2023/03/07 00:41:19;;;;;;;2.78;1.90;;;;;;;3.75;97.01;99781.97;5034257;28;20056;-84
2023/03/07 00:44:01;;;;;;;2.10;1.80;;;;;;;3.81;96.84;99786.44;5019377;28;20044;-84
2023/03/07 00:46:27;;;;;;;2.63;1.87;;;;;;;3.97;97.18;99823.38;5034012;28;20032;-84
2023/03/07 00:48:57;;;;;;;3.72;1.75;;;;;;;4.11;97.15;99844.59;5033487;28;20276;-84
2023/03/07 00:51:31;;;;;;;2.28;1.75;;;;;;;4.12;97.70;99843.75;5033518;28;20463;-84
2023/03/07 00:54:19;;;;;;;;;;;;;;;;;;;;;
2023/03/07 00:56:54;;;;;;;2.45;1.88;;;;;;;4.13;97.39;99845.50;5046824;28;20455;-85
2023/03/07 00:59:46;;;;;;;2.05;1.70;;;;;;;4.16;97.39;99849.91;5014735;28;20053;-84
2023/03/07 01:02:43;;;;;;;2.90;1.60;;;;;;;4.16;97.94;99842.06;5030638;28;20037;-84
2023/03/07 01:05:29;;;;;;;2.63;1.90;;;;;;;3.99;98.09;99812.97;5053139;28;20043;-87
2023/03/07 01:08:26;;;;;;;3.00;1.90;;;;;;;3.76;98.40;99763.72;5008925;28;20074;-85
2023/03/07 01:11:16;;;;;;;2.20;1.67;;;;;;;4.12;98.44;99821.94;5051289;28;20048;-84
2023/03/07 01:13:56;;;;;;;2.38;1.80;;;;;;;4.04;98.49;99811.34;5009672;28;20039;-84
2023/03/07 01:16:50;;;;;;;3.13;2.27;;;;;;;4.15;98.82;99830.72;5053344;28;20040;-85
2023/03/07 01:22:09;;;;;;;2.72;2.10;;;;;;;4.13;98.76;99810.63;5022998;28;20041;-87
2023/03/07 01:24:36;;;;;;;3.00;2.13;;;;;;;3.91;98.82;99776.22;5053833;28;20162;-84
2023/03/07 01:27:24;;;;;;;3.28;2.20;;;;;;;4.07;99.40;99786.97;5035997;28;20029;-84
2023/03/07 01:29:50;;;;;;;4.03;2.25;;;;;;;4.04;99.64;99781.69;5032086;28;20032;-85
2023/03/07 01:32:18;;;;;;;3.50;2.53;;;;;;;3.93;99.62;99763.19;5029189;28;20111;-84
2023/03/07 01:34:43;;;;;;;2.75;2.25;;;;;;;4.13;99.74;99794.94;5018499;28;20047;-84
2023/03/07 01:37:09;;;;;;;4.10;2.85;;;;;;;4.25;99.70;99813.50;5053321;28;20029;-85
2023/03/07 01:39:39;;;;;;;3.45;2.60;;;;;;;4.05;100.00;99765.16;5035406;28;20382;-83
2023/03/07 01:42:15;;;;;;;4.07;2.60;;;;;;;3.84;99.48;99729.03;5035886;28;20027;-84
2023/03/07 01:45:39;;;;;;;4.38;3.15;;;;;;;4.19;100.00;99790.69;5050003;28;20044;-84
2023/03/07 01:48:15;;;;;;;3.53;2.70;;;;;;;4.16;100.00;99774.97;4937385;29;20020;-83
2023/03/07 01:50:42;;;;;;;3.80;2.80;;;;;;;4.07;100.00;99756.50;4952540;29;20122;-85
2023/03/07 01:53:40;;;;;;;;;;;;;;;;;;;;;
2023/03/07 01:56:10;;;;;;;4.72;3.40;;;;;;;4.25;100.00;99789.97;4940543;29;20401;-84
2023/03/07 01:58:44;;;;;;;4.40;3.20;;;;;;;4.22;100.00;99782.06;4939927;28;20038;-84
2023/03/07 02:01:22;;;;;;;4.15;3.28;;;;;;;4.13;100.00;99759.22;4993941;28;20369;-85
2023/03/07 02:04:08;;;;;;;5.75;3.50;;;;;;;4.23;100.00;99762.88;5013807;28;20026;-84
2023/03/07 02:06:36;;;;;;;7.57;3.83;;;;;;;4.34;100.00;99779.66;5010092;28;20132;-85
2023/03/07 02:09:02;;;;;;;5.63;3.47;;;;;;;4.30;100.00;99761.28;5012239;28;20033;-85
2023/03/07 02:11:28;;;;;;;4.95;3.60;;;;;;;3.99;100.00;99722.38;5028663;28;20096;-85
2023/03/07 02:13:53;;;;;;;5.85;4.07;;;;;;;4.22;100.00;99759.38;4995730;28;20077;-85
2023/03/07 02:16:23;;;;;;;6.00;4.20;;;;;;;4.05;100.00;99720.72;5013363;28;20034;-86
2023/03/07 02:18:52;;;;;;;7.47;4.25;;;;;;;4.17;100.00;99741.88;5012222;28;20125;-85
2023/03/07 02:21:50;;;;;;;5.40;3.75;;;;;;;4.31;100.00;99758.69;5012594;28;20054;-86
2023/03/07 02:24:41;;;;;;;6.38;3.90;;;;;;;4.35;100.00;99764.84;4992438;28;20060;-86
2023/03/07 02:27:06;;;;;;;6.60;3.92;;;;;;;4.33;100.00;99763.97;5013849;28;20105;-87
2023/03/07 02:29:32;;;;;;;8.50;3.97;;;;;;;4.34;100.00;99766.59;4995968;28;20116;-86
2023/03/07 02:31:57;;;;;;;6.03;4.15;;;;;;;4.13;100.00;99726.97;5012109;28;20034;-86
2023/03/07 02:34:26;;;;;;;5.25;4.05;;;;;;;4.27;100.00;99741.16;5012247;28;20029;-87
2023/03/07 02:37:08;;;;;;;5.78;3.85;;;;;;;4.32;100.00;99749.09;5012234;28;20022;-86
2023/03/07 02:39:33;;;;;;;5.03;3.70;;;;;;;4.35;100.00;99747.44;5012205;28;20030;-86
2023/03/07 02:42:05;;;;;;;5.55;3.90;;;;;;;4.25;100.00;99720.25;5011586;28;20125;-86
2023/03/07 02:44:34;;;;;;;5.97;3.97;;;;;;;4.28;100.00;99729.84;5012247;28;20033;-86
2023/03/07 02:46:59;;;;;;;6.63;3.58;;;;;;;4.30;100.00;99743.84;5012187;28;20042;-86
2023/03/07 02:49:24;;;;;;;6.10;3.72;;;;;;;4.36;100.00;99750.91;5013499;28;20514;-86
2023/03/07 02:51:50;;;;;;;5.35;3.88;;;;;;;4.15;100.00;99710.44;4995657;28;20038;-85
2023/03/07 02:54:15;;;;;;;6.57;3.60;;;;;;;4.38;100.00;99744.00;5013258;28;20029;-85
2023/03/07 02:56:43;;;;;;;6.28;3.67;;;;;;;4.18;100.00;99722.72;5015875;28;20050;-85
2023/03/07 02:59:08;;;;;;;4.90;3.53;;;;;;;4.35;100.00;99741.31;5015450;28;20060;-85
2023/03/07 03:01:34;;;;;;;5.78;3.58;;;;;;;4.36;100.00;99737.84;5015133;28;20036;-85
2023/03/07 03:04:00;;;;;;;8.13;3.80;;;;;;;4.20;100.00;99726.25;5016106;28;20030;-86
2023/03/07 03:06:25;;;;;;;4.40;3.30;;;;;;;4.20;100.00;99721.03;5035622;28;20112;-84
2023/03/07 03:08:51;;;;;;;8.23;4.30;;;;;;;4.26;100.00;99745.53;5019067;28;20436;-86
2023/03/07 03:11:16;;;;;;;6.10;3.83;;;;;;;4.27;100.00;99743.78;5035348;28;20416;-85
2023/03/07 03:13:41;;;;;;;5.75;3.78;;;;;;;4.30;100.00;99738.63;5035509;28;20511;-86
2023/03/07 03:16:07;;;;;;;5.65;3.58;;;;;;;4.25;100.00;99735.94;5019024;28;20033;-86
2023/03/07 03:18:32;;;;;;;5.95;3.65;;;;;;;4.26;100.00;99732.44;5036729;28;20120;-86
2023/03/07 03:20:58;;;;;;;6.00;3.88;;;;;;;4.21;100.00;99728.88;5035423;28;20471;-86
2023/03/07 03:23:28;;;;;;;5.82;3.88;;;;;;;4.18;100.00;99731.44;5035088;28;20088;-87
2023/03/07 03:26:04;;;;;;;6.80;3.88;;;;;;;4.19;100.00;99730.56;5036388;28;20036;-86
2023/03/07 03:28:30;;;;;;;5.55;3.67;;;;;;;4.09;100.00;99712.09;5035098;28;20033;-87
2023/03/07 03:30:58;;;;;;;5.93;3.60;;;;;;;4.17;100.00;99728.78;5036779;28;20037;-86
2023/03/07 03:33:48;;;;;;;4.70;3.13;;;;;;;4.06;100.00;99705.06;5035038;28;20029;-86
2023/03/07 03:36:18;;;;;;;6.15;3.70;;;;;;;3.92;100.00;99683.91;5036293;28;20509;-86
2023/03/07 03:38:47;;;;;;;4.72;3.30;;;;;;;3.96;100.00;99687.47;5034924;28;20032;-86
2023/03/07 03:41:22;;;;;;;5.28;3.85;;;;;;;4.18;100.00;99720.09;5034759;28;20371;-87
2023/03/07 03:43:53;;;;;;;5.28;3.75;;;;;;;3.88;100.00;99655.94;5036657;28;20036;-87
2023/03/07 03:46:19;;;;;;;6.40;3.75;;;;;;;4.22;100.00;99720.16;5035527;28;20115;-87
2023/03/07 03:49:20;;;;;;;;;;;;;;;;;;;;;
2023/03/07 03:51:50;;;;;;;4.93;3.45;;;;;;;3.85;100.00;99652.38;5036121;28;20039;-86
2023/03/07 03:54:23;;;;;;;6.20;3.58;;;;;;;3.96;100.00;99663.94;5018653;28;20116;-87
2023/03/07 03:56:49;;;;;;;5.75;3.50;;;;;;;3.82;100.00;99634.94;5034488;28;20434;-86
2023/03/07 03:59:21;;;;;;;5.57;3.80;;;;;;;3.75;100.00;99633.94;5035615;28;20029;-87
2023/03/07 04:01:51;;;;;;;5.30;3.50;;;;;;;3.80;100.00;99634.03;5034546;28;20459;-86
2023/03/07 04:04:24;;;;;;;4.68;3.17;;;;;;;4.03;100.00;99668.44;5034706;28;20515;-86
2023/03/07 04:07:00;;;;;;;5.22;3.17;;;;;;;3.92;100.00;99638.59;5034490;28;20057;-87
2023/03/07 04:09:29;;;;;;;4.13;2.90;;;;;;;4.02;100.00;99658.81;5034441;28;20025;-86
2023/03/07 04:11:59;;;;;;;4.50;2.75;;;;;;;4.01;100.00;99657.06;5034090;28;20112;-87
2023/03/07 04:14:27;;;;;;;4.95;2.95;;;;;;;3.73;100.00;99612.16;5034351;28;20029;-86
2023/03/07 04:16:58;;;;;;;4.40;2.58;;;;;;;3.98;100.00;99654.38;5033187;28;20029;-86
2023/03/07 04:19:25;;;;;;;4.60;2.90;;;;;;;3.97;100.00;99655.22;5034283;28;20032;-86
2023/03/07 04:21:51;;;;;;;4.55;2.90;;;;;;;4.11;100.00;99668.53;5034161;28;20033;-85
2023/03/07 04:24:19;;;;;;;3.70;2.70;;;;;;;4.04;100.00;99646.66;5017603;28;20037;-85
2023/03/07 04:26:44;;;;;;;6.13;3.15;;;;;;;3.89;100.00;99615.00;5033838;28;20435;-86
2023/03/07 04:29:10;;;;;;;4.95;3.20;;;;;;;3.85;100.00;99616.69;5034235;28;20108;-85
2023/03/07 04:31:35;;;;;;;4.75;3.45;;;;;;;3.83;100.00;99609.69;5034289;28;20030;-85
2023/03/07 04:34:09;;;;;;;3.90;2.88;;;;;;;3.76;100.00;99599.13;5035167;28;20036;-85
2023/03/07 04:36:40;;;;;;;5.95;3.30;;;;;;;3.71;100.00;99584.22;5035260;28;20115;-86
2023/03/07 04:39:07;;;;;;;4.82;3.28;;;;;;;4.11;100.00;99653.75;5002543;28;20080;-85
2023/03/07 04:41:34;;;;;;;5.70;3.60;;;;;;;3.70;100.00;99583.34;5035260;28;20033;-85
2023/03/07 04:43:59;;;;;;;5.28;3.20;;;;;;;3.84;100.00;99611.44;5033638;28;20352;-85
2023/03/07 04:46:25;;;;;;;5.78;3.20;;;;;;;3.88;100.00;99608.03;5033699;28;20079;-84
2023/03/07 04:48:51;;;;;;;4.50;2.90;;;;;;;3.91;100.00;99615.94;5033246;28;20037;-85
2023/03/07 04:51:16;;;;;;;5.32;2.95;;;;;;;3.71;100.00;99592.94;5033710;28;20108;-85
2023/03/07 04:53:42;;;;;;;4.22;2.90;;;;;;;4.14;100.00;99645.94;5033401;28;20022;-85
2023/03/07 04:56:14;;;;;;;5.80;3.10;;;;;;;3.91;100.00;99605.47;5033113;28;20475;-85
2023/03/07 04:58:46;;;;;;;5.78;2.92;;;;;;;4.17;100.00;99638.16;5017877;28;20073;-86
2023/03/07 05:01:14;;;;;;;5.07;3.03;;;;;;;4.11;100.00;99635.47;5033382;28;20021;-86
2023/03/07 05:03:42;;;;;;;6.53;3.10;;;;;;;3.94;100.00;99603.81;5033405;28;20037;-86
2023/03/07 05:06:31;;;;;;;5.40;3.13;;;;;;;3.78;100.00;99573.03;5034743;28;20055;-86
2023/03/07 05:08:59;;;;;;;6.25;3.15;;;;;;;4.15;100.00;99629.41;5033408;28;20083;-85
2023/03/07 05:11:25;;;;;;;6.03;3.05;;;;;;;3.82;100.00;99577.47;5034473;28;20033;-85
2023/03/07 05:13:50;;;;;;;6.97;3.10;;;;;;;4.07;100.00;99611.84;5033205;28;20033;-85
2023/03/07 05:16:17;;;;;;;5.18;3.42;;;;;;;3.75;100.00;99571.22;5033061;28;20134;-85
2023/03/07 05:18:42;;;;;;;7.10;3.38;;;;;;;3.89;100.00;99587.16;5032424;28;20034;-86
2023/03/07 05:21:08;;;;;;;5.45;3.30;;;;;;;3.75;100.00;99559.91;5034126;28;20379;-85
2023/03/07 05:23:36;;;;;;;6.18;3.47;;;;;;;3.89;100.00;99581.91;5032965;28;20026;-85
2023/03/07 05:26:07;;;;;;;8.10;3.60;;;;;;;4.13;100.00;99630.25;5032637;28;20479;-85
2023/03/07 05:28:33;;;;;;;5.93;3.60;;;;;;;3.99;100.00;99606.50;5033833;28;20025;-86
2023/03/07 05:31:00;;;;;;;4.63;3.40;;;;;;;3.70;100.00;99559.84;5016234;28;20018;-86
2023/03/07 05:33:26;;;;;;;5.85;3.30;;;;;;;4.09;100.00;99616.25;5032969;28;20108;-87
2023/03/07 05:35:59;;;;;;;7.63;3.42;;;;;;;3.91;99.95;99587.19;5032686;28;20132;-86
2023/03/07 05:38:24;;;;;;;6.25;3.33;;;;;;;3.63;100.00;99552.72;5032589;28;20025;-85
2023/03/07 05:40:53;;;;;;;5.63;3.58;;;;;;;3.69;100.00;99554.59;5034093;28;20048;-85
2023/03/07 05:43:18;;;;;;;7.38;3.40;;;;;;;4.01;100.00;99610.88;5033609;28;20468;-85
2023/03/07 05:45:44;;;;;;;5.57;3.50;;;;;;;4.09;100.00;99620.59;5016234;28;20057;-85
2023/03/07 05:48:09;;;;;;;7.40;3.40;;;;;;;3.73;100.00;99554.66;5033855;28;20055;-87
2023/03/07 05:50:45;;;;;;;6.25;3.30;;;;;;;3.94;99.78;99588.13;5032960;28;20029;-85
2023/03/07 05:53:13;;;;;;;5.45;3.40;;;;;;;3.96;100.00;99591.63;5032526;28;20030;-85
2023/03/07 05:55:41;;;;;;;5.47;3.28;;;;;;;3.72;99.47;99549.41;5032566;28;20048;-85
2023/03/07 05:58:09;;;;;;;5.88;3.50;;;;;;;3.93;100.00;99578.50;5031774;28;20387;-86
2023/03/07 06:00:39;;;;;;;4.90;3.30;;;;;;;3.71;99.52;99534.59;5032564;28;20026;-86
2023/03/07 06:03:10;;;;;;;6.28;3.20;;;;;;;3.96;100.00;99580.31;5032215;28;20029;-85
2023/03/07 06:05:38;;;;;;;4.78;3.30;;;;;;;3.65;99.54;99535.38;5032523;28;20463;-87
2023/03/07 06:08:05;;;;;;;4.95;3.10;;;;;;;4.01;100.00;99584.75;5033512;28;20132;-85
2023/03/07 06:10:32;;;;;;;4.35;3.05;;;;;;;4.10;99.70;99598.81;5033540;28;20048;-86
2023/03/07 06:12:58;;;;;;;5.07;3.00;;;;;;;4.14;99.65;99613.72;5032285;28;20029;-87
2023/03/07 06:15:28;;;;;;;5.07;3.38;;;;;;;4.10;100.00;99604.94;5032100;28;20040;-87
2023/03/07 06:17:54;;;;;;;8.35;3.42;;;;;;;3.77;100.00;99550.38;5033283;28;20021;-87
2023/03/07 06:20:22;;;;;;;5.22;3.70;;;;;;;3.78;100.00;99546.91;5015771;28;20525;-87
2023/03/07 06:22:50;;;;;;;5.35;3.35;;;;;;;3.94;100.00;99566.31;5032191;28;20120;-87
2023/03/07 06:25:25;;;;;;;6.78;3.03;;;;;;;3.96;99.45;99581.19;5032074;28;20033;-87
2023/03/07 06:28:00;;;;;;;;;;;;;;;;;;;;;
2023/03/07 06:30:33;;;;;;;5.13;3.15;;;;;;;3.76;98.54;99557.31;5033109;28;20039;-88
2023/03/07 06:33:05;;;;;;;4.47;3.40;;;;;;;3.97;98.32;99597.72;5032547;28;20040;-88
2023/03/07 06:35:30;;;;;;;5.53;3.60;;;;;;;3.64;98.66;99553.59;5031985;28;20029;-88
2023/03/07 06:38:16;;;;;;;4.88;3.70;;;;;;;4.02;97.77;99635.28;5032887;28;20018;-88
2023/03/07 06:40:53;;;;;;;6.32;4.05;;;;;;;3.93;98.03;99614.22;5035804;28;20112;-88
2023/03/07 06:43:23;;;;;;;5.47;3.63;;;;;;;3.75;98.18;99586.91;5035995;28;20411;-88
2023/03/07 06:45:58;;;;;;;4.40;3.40;;;;;;;3.65;98.08;99545.81;5035832;28;20075;-88
2023/03/07 06:48:34;;;;;;;4.55;3.40;;;;;;;3.79;97.05;99594.81;5035569;28;20037;-88
2023/03/07 06:51:10;;;;;;;5.72;3.65;;;;;;;3.71;97.05;99579.88;5020187;28;20061;-87
2023/03/07 06:53:40;;;;;;;6.95;3.67;;;;;;;3.89;96.28;99609.78;5036512;28;20083;-87
2023/03/07 06:56:06;;;;;;;4.90;3.50;;;;;;;3.66;96.18;99578.03;5036101;28;20037;-87
2023/03/07 06:58:34;;;;;;;5.20;3.20;;;;;;;3.52;96.81;99562.13;5035264;28;20045;-87
2023/03/07 07:01:01;;;;;;;5.75;3.60;;;;;;;3.76;96.79;99608.69;5035343;28;20131;-87
2023/03/07 07:03:27;;;;;;;4.95;3.72;;;;;;;3.85;97.23;99631.50;5018645;28;20116;-86
2023/03/07 07:05:57;;;;;;;6.05;3.92;;;;;;;3.70;96.99;99605.97;5035297;28;20493;-88
2023/03/07 07:08:31;;;;;;;7.00;3.65;;;;;;;3.61;96.51;99579.69;5019445;28;20029;-87
2023/03/07 07:11:09;;;;;;;4.93;3.50;;;;;;;3.44;96.48;99561.97;5035194;28;20040;-87
2023/03/07 07:13:37;;;;;;;5.53;3.67;;;;;;;3.89;96.53;99638.53;5021892;28;20075;-87
2023/03/07 07:16:19;;;;;;;5.78;3.53;;;;;;;3.46;96.03;99567.22;5037522;28;20033;-88
2023/03/07 07:18:48;;;;;;;5.03;3.40;;;;;;;3.59;95.44;99602.28;5035292;28;20025;-87
2023/03/07 07:21:15;;;;;;;5.28;3.40;;;;;;;3.29;94.84;99548.63;5018860;28;20276;-88
2023/03/07 07:23:51;;;;;;;4.60;3.30;;;;;;;3.30;94.41;99554.72;5036746;28;20029;-88
2023/03/07 07:26:31;;;;;;;;;;;;;;;;;;;;;
2023/03/07 07:29:20;;;;;;;5.20;3.15;;;;;;;3.47;94.00;99596.00;5036518;28;20114;-88
2023/03/07 07:31:49;;;;;;;4.78;3.20;;;;;;;3.28;94.39;99580.81;5040704;28;20041;-88
2023/03/07 07:34:26;;;;;;;4.25;3.08;;;;;;;3.21;93.97;99587.66;5057168;28;20439;-87
2023/03/07 07:37:12;;;;;;;5.72;3.30;;;;;;;3.32;93.88;99613.97;5055168;28;20033;-87
2023/03/07 07:39:42;;;;;;;5.57;3.55;;;;;;;2.96;94.55;99560.19;5054868;28;20036;-87
2023/03/07 07:42:10;;;;;;;4.82;3.40;;;;;;;3.24;94.40;99624.25;5055061;28;20025;-88
2023/03/07 07:44:47;;;;;;;4.55;3.20;;;;;;;3.00;93.63;99592.44;5056655;28;20029;-86
2023/03/07 07:47:25;;;;;;;6.28;4.10;;;;;;;3.20;93.45;99631.97;5023854;28;20123;-88
2023/03/07 07:50:02;;;;;;;5.15;3.88;;;;;;;3.34;93.67;99666.19;5056247;28;20025;-88
2023/03/07 07:52:57;;;;;;;5.60;4.00;;;;;;;3.02;93.06;99611.59;5026165;28;20032;-89
2023/03/07 07:55:23;;;;;;;6.78;3.60;;;;;;;2.92;92.66;99618.34;5055342;28;20036;-89
2023/03/07 08:01:19;;;;;;;4.93;3.35;;;;;;;2.98;92.83;99626.31;5049473;28;20033;-89
2023/03/07 08:10:17;;;;;;;;;;;;;;;;;;;;;
2023/03/07 08:12:54;;;;;;;;;;;;;;;;;;;;;
2023/03/07 08:15:39;;;;;;;6.90;4.32;;;;;;;3.17;92.58;99663.22;5034805;28;20036;-89
2023/03/07 08:18:19;;;;;;;6.47;4.28;;;;;;;3.03;92.83;99644.66;5036811;28;20542;-89
2023/03/07 08:21:11;;;;;;;6.82;4.38;;;;;;;3.09;92.77;99641.34;5060621;28;20402;-87
2023/03/07 08:23:54;;;;;;;;;;;;;;;;;;;;;
2023/03/07 08:26:21;;;;;;;7.97;4.63;;;;;;;3.32;93.09;99670.50;5056035;28;20028;-87
2023/03/07 08:28:50;;;;;;;7.40;5.00;;;;;;;3.22;92.93;99649.44;5055554;28;20024;-86
2023/03/07 08:31:19;;;;;;;8.88;5.43;;;;;;;3.03;92.19;99644.66;5053882;28;20025;-86
2023/03/07 08:33:46;;;;;;;7.57;5.90;;;;;;;3.16;92.93;99659.75;5053936;28;20017;-86
2023/03/07 08:36:15;;;;;;;8.52;5.65;;;;;;;3.17;92.79;99708.50;5055406;28;20025;-87
2023/03/07 08:38:44;;;;;;;7.70;5.60;;;;;;;3.11;93.11;99668.31;5054944;28;20013;-87
2023/03/07 08:41:14;;;;;;;6.28;4.88;;;;;;;2.82;92.94;99663.34;5055624;28;20056;-87
2023/03/07 08:43:50;;;;;;;;;;;;;;;;;;;;;
2023/03/07 08:46:18;;;;;;;8.00;5.82;;;;;;;2.88;93.50;99670.44;5056195;28;20032;-87
2023/03/07 08:48:50;;;;;;;7.50;5.30;;;;;;;2.74;93.98;99642.31;5055805;28;20024;-86
2023/03/07 08:51:24;;;;;;;8.30;6.13;;;;;;;2.68;93.67;99623.91;5056102;28;20032;-86
2023/03/07 08:53:54;;;;;;;6.53;5.45;;;;;;;2.85;93.33;99639.06;5053249;28;20463;-86
2023/03/07 08:56:24;;;;;;;8.02;6.93;;;;;;;2.85;93.94;99636.44;5055167;28;20056;-87
2023/03/07 08:58:54;;;;;;;7.65;5.20;;;;;;;2.92;93.82;99631.41;5057053;28;20054;-87
2023/03/07 09:01:35;;;;;;;7.03;5.43;;;;;;;3.04;93.62;99641.22;5056077;28;20063;-87
2023/03/07 09:04:25;;;;;;;7.20;5.47;;;;;;;3.22;93.19;99659.00;5074613;28;20090;-87
2023/03/07 09:07:02;;;;;;;7.40;5.45;;;;;;;3.04;93.20;99620.34;5042976;28;20123;-87
2023/03/07 09:09:37;;;;;;;7.05;5.20;;;;;;;3.24;92.23;99646.84;5074618;28;20028;-86
2023/03/07 09:12:05;;;;;;;6.95;5.10;;;;;;;3.39;92.95;99665.47;5040161;28;20048;-86
2023/03/07 09:14:31;;;;;;;7.78;6.00;;;;;;;3.39;92.14;99652.41;5056094;28;20108;-86
2023/03/07 09:16:58;;;;;;;7.63;5.38;;;;;;;3.33;91.64;99641.81;5039970;28;20059;-87
2023/03/07 09:19:23;;;;;;;8.63;5.97;;;;;;;3.51;92.20;99652.66;5056046;28;20036;-83
2023/03/07 09:21:49;;;;;;;8.68;6.45;;;;;;;3.73;92.00;99693.13;5075795;28;20612;-88
2023/03/07 09:24:14;;;;;;;8.32;6.78;;;;;;;3.70;91.83;99698.28;5073813;28;20119;-85
2023/03/07 09:26:51;;;;;;;8.73;7.13;;;;;;;3.59;91.02;99678.91;5056286;28;20021;-87
2023/03/07 09:29:17;;;;;;;9.15;7.57;;;;;;;3.62;91.17;99688.53;5074918;28;20020;-86
2023/03/07 09:31:43;;;;;;;9.70;7.82;;;;;;;3.47;91.72;99676.06;5074017;28;20111;-85
2023/03/07 09:34:16;;;;;;;9.70;8.02;;;;;;;3.53;91.58;99697.06;5055659;28;20113;-85
2023/03/07 09:36:44;;;;;;;10.43;8.05;;;;;;;3.35;92.00;99660.16;5055321;28;20032;-86
2023/03/07 09:39:20;;;;;;;8.82;7.38;;;;;;;3.47;92.40;99690.00;5073255;28;20150;-87
2023/03/07 09:41:55;;;;;;;9.50;7.68;;;;;;;3.60;92.14;99706.81;5055402;28;20036;-86
2023/03/07 09:45:05;;;;;;;;;;;;;;;;;;;;;
2023/03/07 09:47:57;;;;;;;8.82;7.22;;;;;;;3.88;92.55;99725.63;5073187;28;20377;-86
2023/03/07 09:50:32;;;;;;;10.90;8.63;;;;;;;3.93;91.66;99721.38;5056336;28;20028;-85
2023/03/07 09:53:02;;;;;;;10.77;8.70;;;;;;;3.94;91.55;99731.88;5073186;28;20020;-83
2023/03/07 09:55:29;;;;;;;9.85;8.20;;;;;;;3.80;91.51;99720.25;5054872;28;20058;-85
2023/03/07 09:57:59;;;;;;;12.18;8.63;;;;;;;3.82;91.09;99730.75;5054425;28;20080;-85
2023/03/07 10:00:40;;;;;;;12.18;8.50;;;;;;;3.90;92.04;99731.78;5055115;28;20410;-87
2023/03/07 10:03:26;;;;;;;11.55;8.77;;;;;;;3.86;91.98;99720.38;5056018;28;20366;-85
2023/03/07 10:05:57;;;;;;;10.63;8.32;;;;;;;3.96;91.80;99726.66;5073117;28;20020;-85
2023/03/07 10:08:29;;;;;;;9.95;8.00;;;;;;;3.98;91.36;99731.06;5055197;28;20098;-85
2023/03/07 10:10:57;;;;;;;9.52;7.68;;;;;;;3.90;91.02;99726.56;5072700;28;20032;-85
2023/03/07 10:13:26;;;;;;;8.45;7.50;;;;;;;3.89;91.90;99719.53;5053971;28;20059;-85
2023/03/07 10:16:14;;;;;;;7.57;6.07;;;;;;;3.78;91.30;99706.28;5073031;28;20532;-85
2023/03/07 10:18:58;;;;;;;6.28;5.18;;;;;;;3.87;91.48;99723.88;5054941;28;20064;-86
2023/03/07 10:21:39;;;;;;;7.47;5.70;;;;;;;3.81;91.92;99722.00;5054375;28;20078;-86
2023/03/07 10:24:16;;;;;;;7.40;5.55;;;;;;;3.71;91.92;99688.72;5054731;28;20031;-84
2023/03/07 10:27:09;;;;;;;6.65;5.18;;;;;;;3.97;91.70;99733.63;5073034;28;20031;-84
2023/03/07 10:29:49;;;;;;;5.60;4.70;;;;;;;3.96;92.51;99732.75;5050477;28;20033;-86
2023/03/07 10:32:19;;;;;;;5.85;4.88;;;;;;;3.97;91.26;99728.41;5054782;28;20017;-85
2023/03/07 10:34:51;;;;;;;6.60;4.65;;;;;;;3.99;91.84;99725.00;5054846;28;20044;-85
2023/03/07 10:37:28;;;;;;;5.50;4.40;;;;;;;3.92;91.29;99728.31;5064554;28;20017;-85
2023/03/07 10:39:55;;;;;;;5.53;4.35;;;;;;;3.97;91.32;99726.69;5060649;28;20029;-90
2023/03/07 10:42:33;;;;;;;;;;;;;;;;;;;;;
2023/03/07 10:45:38;;;;;;;8.57;4.75;;;;;;;3.92;92.26;99724.84;5052032;28;20043;-85
2023/03/07 10:51:45;;;;;;;5.75;4.22;;;;;;;4.15;92.62;99722.63;5049968;28;20048;-88
2023/03/07 10:54:20;;;;;;;5.60;4.15;;;;;;;3.92;91.84;99675.19;5035024;28;20119;-89
2023/03/07 10:57:09;;;;;;;5.47;4.28;;;;;;;4.26;90.86;99728.97;5030851;28;20049;-88
2023/03/07 10:59:48;;;;;;;5.35;4.03;;;;;;;3.78;91.22;99650.53;5035036;28;20475;-88
2023/03/07 11:02:47;;;;;;;7.65;5.22;;;;;;;4.25;91.67;99730.69;5019495;28;20025;-85
2023/03/07 11:05:30;;;;;;;8.25;5.80;;;;;;;4.11;90.66;99711.28;5034564;28;20032;-87
2023/03/07 11:08:02;;;;;;;7.10;5.45;;;;;;;3.80;92.11;99661.88;5051975;28;20107;-86
2023/03/07 11:10:41;;;;;;;6.57;5.00;;;;;;;3.73;92.10;99643.50;5052311;28;20029;-86
2023/03/07 11:13:21;;;;;;;6.80;4.90;;;;;;;4.11;91.64;99690.38;5018020;28;20101;-87
2023/03/07 11:16:09;;;;;;;7.20;4.80;;;;;;;4.02;89.53;99690.16;5018683;28;20032;-88
2023/03/07 11:18:43;;;;;;;5.75;4.35;;;;;;;3.81;90.71;99656.69;5034684;28;20036;-86
2023/03/07 11:21:40;;;;;;;6.85;4.57;;;;;;;4.32;91.75;99733.41;5053761;28;20029;-90
2023/03/07 11:24:28;;;;;;;5.30;3.85;;;;;;;4.37;90.67;99734.38;5035658;28;20029;-88
2023/03/07 11:26:56;;;;;;;6.32;4.15;;;;;;;4.37;91.67;99731.75;5055317;28;20017;-83
2023/03/07 11:29:21;;;;;;;5.55;4.05;;;;;;;4.12;91.31;99673.81;5056268;28;20024;-84
2023/03/07 11:31:55;;;;;;;5.55;4.45;;;;;;;4.26;91.37;99705.44;5021141;28;20383;-85
2023/03/07 11:34:35;;;;;;;5.55;4.22;;;;;;;4.47;92.02;99723.22;5055562;28;20060;-85
2023/03/07 11:37:27;;;;;;;5.65;4.15;;;;;;;4.56;91.89;99733.84;5038113;28;20120;-82
2023/03/07 11:40:11;;;;;;;5.90;4.13;;;;;;;4.46;89.88;99729.31;5055758;28;20025;-84
2023/03/07 11:42:43;;;;;;;6.10;3.97;;;;;;;4.37;91.71;99721.28;5037735;28;20274;-84
2023/03/07 11:45:11;;;;;;;6.67;4.30;;;;;;;4.34;91.44;99722.13;5037492;28;20131;-84
2023/03/07 11:47:44;;;;;;;7.38;4.07;;;;;;;4.35;92.57;99728.25;5037683;28;20025;-85
2023/03/07 11:50:23;;;;;;;5.65;4.07;;;;;;;4.32;92.12;99713.38;5038771;28;20466;-87
2023/03/07 11:53:26;;;;;;;4.82;3.65;;;;;;;4.38;92.21;99715.22;5046572;28;20012;-85
2023/03/07 11:56:27;;;;;;;6.32;3.88;;;;;;;4.37;91.99;99718.66;5055525;28;20467;-86
2023/03/07 11:59:08;;;;;;;5.40;3.58;;;;;;;4.35;92.80;99702.09;5037920;28;20409;-87
2023/03/07 12:01:55;;;;;;;4.55;3.42;;;;;;;4.60;92.51;99726.94;5037703;28;20032;-87
2023/03/07 12:04:42;;;;;;;4.55;3.58;;;;;;;4.44;91.08;99692.66;5037549;28;20120;-89
2023/03/07 12:07:28;;;;;;;5.43;3.58;;;;;;;4.63;91.65;99727.88;4997639;28;20036;-85
2023/03/07 12:10:25;;;;;;;5.28;3.90;;;;;;;4.66;91.78;99727.91;5036854;28;20383;-86
2023/03/07 12:13:23;;;;;;;4.53;3.50;;;;;;;4.62;90.95;99725.22;5037567;28;20028;-89
2023/03/07 12:16:21;;;;;;;4.45;3.42;;;;;;;4.62;93.11;99720.84;5038462;28;20021;-89
2023/03/07 12:19:11;;;;;;;4.82;3.70;;;;;;;4.62;93.37;99696.44;5053353;28;20064;-89
2023/03/07 12:22:17;;;;;;;4.90;3.72;;;;;;;4.67;91.89;99700.91;5057528;28;20036;-89
2023/03/07 12:25:06;;;;;;;4.50;3.50;;;;;;;4.50;91.50;99686.66;5057430;28;20110;-89
2023/03/07 12:27:53;;;;;;;4.93;3.63;;;;;;;4.68;92.61;99720.09;5042481;28;20123;-90
2023/03/07 12:30:26;;;;;;;5.47;3.75;;;;;;;4.76;92.65;99708.00;5078474;28;20020;-86
2023/03/07 12:36:19;;;;;;;4.80;3.50;;;;;;;4.70;93.27;99693.06;5063471;28;20553;-91
2023/03/07 12:39:07;;;;;;;5.28;3.70;;;;;;;4.46;92.19;99650.84;5078062;28;20522;-90
2023/03/07 12:42:03;;;;;;;;;;;;;;;;;;;;;
2023/03/07 12:45:05;;;;;;;6.38;4.40;;;;;;;5.04;93.05;99719.78;5069987;28;20430;-89
2023/03/07 12:48:28;;;;;;;6.93;4.63;;;;;;;4.95;91.68;99683.00;5057296;28;20072;-89